Time;durP1;ratioP1;P1;durP2;ratioP2;P2;SDS_P1;SDS_P2;PMS_P1;PMS_P2;Temp;Humidity;BMP_temperature;BMP_pressure;BME280_temperature;BME280_humidity;BME280_pressure;Samples;Min_cycle;Max_cycle;Signal;HPM_P1;HPM_P2
2020/12/13 00:01:42;;;;;;;37.10;21.67;;;5.10;81.70;;;;;;4975716;28;20441;-75
2020/12/13 00:04:08;;;;;;;42.85;24.17;;;5.20;81.50;;;;;;4975833;28;20030;-75
2020/12/13 00:06:34;;;;;;;38.15;22.92;;;5.20;81.30;;;;;;4975824;28;20031;-75
2020/12/13 00:09:05;;;;;;;35.05;22.88;;;5.30;81.30;;;;;;4975754;28;20030;-75
2020/12/13 00:11:31;;;;;;;38.63;22.63;;;5.20;81.10;;;;;;4975614;28;20022;-75
2020/12/13 00:13:57;;;;;;;38.38;22.92;;;5.20;81.00;;;;;;4974284;28;20027;-74
2020/12/13 00:16:22;;;;;;;35.22;22.52;;;5.20;81.20;;;;;;4975760;28;20470;-73
2020/12/13 00:18:48;;;;;;;33.15;20.90;;;5.20;80.90;;;;;;4975540;28;20470;-76
2020/12/13 00:21:15;;;;;;;35.17;19.98;;;5.10;80.90;;;;;;4974306;28;20019;-75
2020/12/13 00:23:41;;;;;;;36.15;21.13;;;5.10;81.10;;;;;;4975879;28;20045;-75
2020/12/13 00:26:11;;;;;;;32.90;19.63;;;5.20;81.30;;;;;;4974009;28;20478;-76
2020/12/13 00:28:37;;;;;;;31.30;20.00;;;5.20;81.20;;;;;;4975264;28;20031;-76
2020/12/13 00:31:13;;;;;;;30.98;19.65;;;5.20;81.30;;;;;;4975108;28;20122;-75
2020/12/13 00:33:38;;;;;;;30.77;20.60;;;5.20;81.40;;;;;;4975378;28;20058;-75
2020/12/13 00:36:04;;;;;;;34.05;20.50;;;5.30;81.30;;;;;;4975224;28;20053;-74
2020/12/13 00:38:29;;;;;;;36.67;22.15;;;5.30;81.20;;;;;;4974861;28;20034;-75
2020/12/13 00:40:55;;;;;;;35.65;20.60;;;5.30;81.50;;;;;;4975025;28;20034;-74
2020/12/13 00:43:21;;;;;;;34.10;20.67;;;5.20;81.30;;;;;;4975241;28;20461;-75
2020/12/13 00:45:46;;;;;;;33.70;20.55;;;5.20;81.60;;;;;;4975252;28;20473;-74
2020/12/13 00:48:12;;;;;;;29.67;19.73;;;5.10;82.20;;;;;;4974966;28;20385;-74
2020/12/13 00:50:39;;;;;;;32.60;20.92;;;5.10;82.80;;;;;;4974607;28;20041;-75
2020/12/13 00:53:07;;;;;;;35.65;21.70;;;5.00;83.20;;;;;;4973476;28;20736;-75
2020/12/13 00:55:33;;;;;;;36.45;21.33;;;5.00;83.40;;;;;;4974786;28;20046;-74
2020/12/13 00:57:59;;;;;;;43.03;21.60;;;5.00;83.70;;;;;;4973467;28;20026;-74
2020/12/13 01:00:26;;;;;;;35.25;21.60;;;5.00;84.10;;;;;;4974850;28;20066;-75
2020/12/13 01:02:58;;;;;;;36.42;22.02;;;5.00;84.30;;;;;;4974682;28;20102;-74
2020/12/13 01:05:24;;;;;;;37.65;21.38;;;4.90;84.40;;;;;;4974771;28;20449;-75
2020/12/13 01:07:51;;;;;;;34.28;21.60;;;4.90;84.40;;;;;;4974709;28;20310;-75
2020/12/13 01:10:18;;;;;;;34.58;23.05;;;4.80;84.50;;;;;;4975009;28;20023;-75
2020/12/13 01:12:44;;;;;;;37.33;21.00;;;4.80;84.70;;;;;;4974489;28;20489;-75
2020/12/13 01:15:09;;;;;;;40.80;24.40;;;4.80;85.10;;;;;;4974512;28;20038;-75
2020/12/13 01:17:35;;;;;;;39.67;23.90;;;4.80;85.50;;;;;;4974488;28;20575;-75
2020/12/13 01:20:02;;;;;;;36.10;22.98;;;4.80;85.40;;;;;;4974359;28;20023;-76
2020/12/13 01:22:27;;;;;;;34.38;22.50;;;4.70;85.90;;;;;;4974357;28;20062;-74
2020/12/13 01:24:53;;;;;;;37.70;22.10;;;4.70;86.10;;;;;;4974086;28;20038;-75
2020/12/13 01:27:19;;;;;;;37.63;23.35;;;4.70;86.40;;;;;;4974289;28;20011;-75
2020/12/13 01:29:44;;;;;;;34.30;21.45;;;4.70;86.70;;;;;;4974327;28;20034;-76
2020/12/13 01:32:10;;;;;;;37.95;22.98;;;4.60;86.90;;;;;;4974265;28;20048;-75
2020/12/13 01:34:36;;;;;;;40.13;23.45;;;4.60;87.10;;;;;;4974254;28;20023;-75
2020/12/13 01:37:02;;;;;;;39.00;23.73;;;4.60;87.20;;;;;;4973206;28;20022;-76
2020/12/13 01:39:27;;;;;;;42.40;25.35;;;4.50;87.40;;;;;;4973710;28;20023;-76
2020/12/13 01:42:00;;;;;;;37.10;23.63;;;4.50;87.60;;;;;;4972802;28;20041;-75
2020/12/13 01:44:33;;;;;;;41.40;24.60;;;4.50;87.70;;;;;;4974186;28;20080;-75
2020/12/13 01:46:59;;;;;;;40.40;24.35;;;4.50;87.80;;;;;;4974101;28;20034;-75
2020/12/13 01:49:42;;;;;;;38.38;24.02;;;4.50;87.90;;;;;;4973570;28;20326;-74
2020/12/13 01:54:58;;;;;;;37.85;23.17;;;4.50;88.10;;;;;;4973066;28;20033;-75
2020/12/13 01:57:25;;;;;;;42.17;24.48;;;4.50;88.20;;;;;;4973770;28;20049;-75
2020/12/13 01:59:52;;;;;;;39.17;23.73;;;4.50;88.30;;;;;;4972556;28;20023;-76
2020/12/13 02:02:23;;;;;;;37.58;24.05;;;4.50;88.20;;;;;;4973772;28;20123;-76
2020/12/13 02:04:53;;;;;;;42.88;25.33;;;4.50;88.30;;;;;;4973829;28;20069;-75
2020/12/13 02:07:20;;;;;;;41.63;24.42;;;4.50;88.30;;;;;;4973882;28;20027;-75
2020/12/13 02:09:46;;;;;;;41.55;25.33;;;4.50;88.30;;;;;;4973638;28;20024;-75
2020/12/13 02:12:12;;;;;;;42.10;25.45;;;4.50;88.20;;;;;;4973634;28;20082;-75
2020/12/13 02:14:37;;;;;;;42.80;24.20;;;4.50;88.10;;;;;;4973550;28;20109;-74
2020/12/13 02:17:04;;;;;;;38.72;24.45;;;4.50;88.20;;;;;;4973700;28;20074;-74
2020/12/13 02:19:31;;;;;;;43.42;26.95;;;4.50;88.30;;;;;;4973664;28;20034;-74
2020/12/13 02:22:00;;;;;;;42.42;24.60;;;4.50;88.30;;;;;;4973579;28;20030;-74
2020/12/13 02:24:26;;;;;;;44.88;27.10;;;4.50;88.20;;;;;;4973622;28;20027;-75
2020/12/13 02:26:52;;;;;;;44.60;26.77;;;4.50;88.30;;;;;;4973530;28;20429;-75
2020/12/13 02:29:17;;;;;;;45.20;26.50;;;4.50;88.20;;;;;;4973324;28;20026;-74
2020/12/13 02:31:44;;;;;;;44.17;27.15;;;4.50;88.20;;;;;;4973378;28;20450;-74
2020/12/13 02:34:09;;;;;;;45.78;28.52;;;4.60;88.10;;;;;;4973528;28;20026;-74
2020/12/13 02:36:35;;;;;;;44.50;28.55;;;4.60;87.90;;;;;;4972181;28;20049;-74
2020/12/13 02:39:04;;;;;;;50.15;30.17;;;4.50;88.10;;;;;;4973356;28;20015;-75
2020/12/13 02:41:29;;;;;;;46.78;29.75;;;4.50;88.30;;;;;;4973357;28;20069;-75
2020/12/13 02:43:55;;;;;;;52.15;29.65;;;4.50;88.50;;;;;;4973264;28;20445;-75
2020/12/13 02:46:21;;;;;;;57.45;31.33;;;4.50;88.70;;;;;;4973271;28;20505;-75
2020/12/13 02:48:47;;;;;;;56.50;30.55;;;4.50;88.70;;;;;;4973363;28;20030;-74
2020/12/13 02:51:12;;;;;;;55.33;32.15;;;4.50;88.80;;;;;;4984068;23;20056;-74
2020/12/13 02:53:38;;;;;;;58.10;32.03;;;4.50;88.90;;;;;;4973343;28;20358;-75
2020/12/13 02:56:03;;;;;;;52.45;32.53;;;4.50;89.10;;;;;;4973236;28;20166;-75
2020/12/13 02:58:29;;;;;;;58.78;33.58;;;4.50;89.00;;;;;;4971703;28;20482;-76
2020/12/13 03:00:56;;;;;;;56.35;32.70;;;4.50;89.00;;;;;;4972055;28;20093;-76
2020/12/13 03:03:23;;;;;;;54.17;31.25;;;4.50;89.20;;;;;;4976816;28;20027;-75
2020/12/13 03:05:48;;;;;;;57.60;32.67;;;4.60;88.90;;;;;;4975624;28;20029;-75
2020/12/13 03:08:14;;;;;;;59.85;34.60;;;4.60;89.10;;;;;;4976820;28;20279;-75
2020/12/13 03:10:40;;;;;;;63.20;34.92;;;4.50;89.00;;;;;;4976701;28;20106;-75
2020/12/13 03:13:05;;;;;;;64.40;35.55;;;4.50;89.30;;;;;;4976537;28;20042;-75
2020/12/13 03:15:31;;;;;;;65.28;35.08;;;4.40;89.30;;;;;;4976672;28;20015;-75
2020/12/13 03:17:57;;;;;;;60.08;35.17;;;4.40;89.60;;;;;;4976581;28;20023;-75
2020/12/13 03:20:22;;;;;;;61.53;34.08;;;4.50;89.60;;;;;;4976635;28;20027;-75
2020/12/13 03:22:48;;;;;;;59.00;34.55;;;4.50;89.40;;;;;;4976455;28;20105;-74
2020/12/13 03:25:13;;;;;;;59.75;33.85;;;4.50;89.30;;;;;;4959138;28;20033;-74
2020/12/13 03:27:40;;;;;;;60.67;35.85;;;4.50;89.40;;;;;;4975061;28;20026;-75
2020/12/13 03:30:06;;;;;;;60.35;33.05;;;4.60;89.10;;;;;;4975256;28;20019;-74
2020/12/13 03:32:35;;;;;;;63.58;34.92;;;4.50;89.10;;;;;;4974941;28;20108;-75
2020/12/13 03:35:05;;;;;;;60.60;34.83;;;4.50;89.10;;;;;;4976194;28;20027;-75
2020/12/13 03:37:30;;;;;;;57.60;34.90;;;4.50;89.30;;;;;;4976268;28;20488;-75
2020/12/13 03:39:56;;;;;;;59.20;34.38;;;4.50;89.30;;;;;;4968108;28;20023;-75
2020/12/13 03:42:22;;;;;;;60.72;35.20;;;4.50;89.30;;;;;;4956721;29;20067;-74
2020/12/13 03:44:47;;;;;;;54.58;33.28;;;4.50;89.30;;;;;;4971670;28;20055;-75
2020/12/13 03:47:13;;;;;;;51.15;32.60;;;4.50;89.20;;;;;;4956720;29;20410;-74
2020/12/13 03:49:39;;;;;;;58.30;33.75;;;4.60;89.00;;;;;;4956642;28;20027;-75
2020/12/13 03:52:04;;;;;;;54.00;33.38;;;4.60;88.90;;;;;;4971351;28;20102;-75
2020/12/13 03:54:31;;;;;;;54.50;33.65;;;4.60;88.90;;;;;;4970620;28;20378;-74
2020/12/13 03:56:57;;;;;;;59.47;34.55;;;4.60;88.70;;;;;;4974338;28;20504;-74
2020/12/13 03:59:22;;;;;;;55.70;31.80;;;4.60;88.70;;;;;;4975752;28;20042;-74
2020/12/13 04:01:48;;;;;;;61.53;33.97;;;4.60;88.70;;;;;;4975875;28;20027;-74
2020/12/13 04:04:14;;;;;;;53.67;31.77;;;4.70;88.50;;;;;;4975807;28;20437;-74
2020/12/13 04:06:39;;;;;;;53.97;33.13;;;4.70;88.40;;;;;;4975754;28;20474;-73
2020/12/13 04:09:05;;;;;;;52.95;31.38;;;4.60;88.60;;;;;;4975589;28;20029;-74
2020/12/13 04:11:31;;;;;;;51.60;31.88;;;4.60;88.50;;;;;;4974257;28;20038;-73
2020/12/13 04:13:57;;;;;;;62.63;33.78;;;4.60;88.40;;;;;;4974983;28;20097;-74
2020/12/13 04:16:22;;;;;;;47.33;29.83;;;4.70;88.30;;;;;;4975653;28;20055;-74
2020/12/13 04:18:48;;;;;;;54.63;33.13;;;4.60;88.20;;;;;;4975559;28;20489;-74
2020/12/13 04:21:14;;;;;;;52.25;30.77;;;4.70;88.20;;;;;;4974176;28;20421;-74
2020/12/13 04:23:39;;;;;;;54.58;33.00;;;4.60;88.00;;;;;;4975499;28;20035;-74
2020/12/13 04:26:05;;;;;;;54.28;32.08;;;4.60;88.20;;;;;;4974055;28;20110;-74
2020/12/13 04:28:31;;;;;;;49.47;30.15;;;4.70;88.10;;;;;;4975581;28;20054;-74
2020/12/13 04:30:56;;;;;;;54.33;31.85;;;4.70;87.80;;;;;;4975164;28;20026;-74
2020/12/13 04:33:22;;;;;;;51.95;31.35;;;4.70;87.70;;;;;;4974374;28;20058;-73
2020/12/13 04:35:48;;;;;;;46.97;29.85;;;4.70;87.60;;;;;;4974120;28;20081;-75
2020/12/13 04:38:13;;;;;;;51.17;31.50;;;4.70;87.70;;;;;;4975319;28;20089;-75
2020/12/13 04:40:39;;;;;;;51.40;30.95;;;4.60;87.70;;;;;;4975103;28;20053;-74
2020/12/13 04:43:06;;;;;;;56.60;32.03;;;4.70;87.40;;;;;;4975052;28;20385;-74
2020/12/13 04:45:32;;;;;;;48.65;28.63;;;4.70;87.60;;;;;;4975128;28;20058;-74
2020/12/13 04:48:06;;;;;;;52.53;30.75;;;4.70;87.50;;;;;;4975099;28;20034;-74
2020/12/13 04:50:34;;;;;;;50.55;30.80;;;4.70;87.20;;;;;;4974830;28;20046;-74
2020/12/13 04:53:04;;;;;;;52.65;31.73;;;4.70;87.20;;;;;;4974462;28;20127;-74
2020/12/13 04:55:29;;;;;;;52.08;30.80;;;4.70;87.30;;;;;;4974905;28;20023;-73
2020/12/13 04:57:56;;;;;;;48.90;30.38;;;4.70;87.20;;;;;;4973518;28;20401;-73
2020/12/13 05:00:22;;;;;;;47.78;29.27;;;4.70;87.30;;;;;;4973642;28;20030;-74
2020/12/13 05:02:51;;;;;;;51.28;30.52;;;4.80;86.90;;;;;;4974763;28;20023;-73
2020/12/13 05:05:20;;;;;;;48.97;30.52;;;4.80;86.70;;;;;;4974650;28;20470;-73
2020/12/13 05:07:46;;;;;;;48.08;29.98;;;4.90;86.50;;;;;;4973304;28;20046;-73
2020/12/13 05:10:12;;;;;;;48.42;28.83;;;4.90;86.40;;;;;;4974582;28;20019;-73
2020/12/13 05:12:37;;;;;;;49.58;29.85;;;4.90;86.30;;;;;;4974492;28;20038;-74
2020/12/13 05:15:04;;;;;;;47.63;28.77;;;4.90;86.10;;;;;;4974516;28;20366;-74
2020/12/13 05:17:32;;;;;;;49.95;30.45;;;4.90;86.10;;;;;;4974362;28;20041;-74
2020/12/13 05:19:58;;;;;;;49.03;29.55;;;4.90;86.00;;;;;;4974434;28;20023;-74
2020/12/13 05:22:23;;;;;;;47.78;29.25;;;4.80;86.00;;;;;;4974204;28;20077;-74
2020/12/13 05:24:50;;;;;;;46.25;29.00;;;4.80;86.10;;;;;;4973593;28;20070;-75
2020/12/13 05:27:22;;;;;;;46.65;28.98;;;4.90;86.20;;;;;;4974329;28;20037;-76
2020/12/13 05:29:49;;;;;;;51.65;29.75;;;5.00;85.80;;;;;;4974412;28;20110;-75
2020/12/13 05:32:19;;;;;;;53.25;29.77;;;5.00;85.70;;;;;;4974049;28;20042;-76
2020/12/13 05:34:47;;;;;;;48.15;29.40;;;5.00;85.50;;;;;;4974044;28;20035;-76
2020/12/13 05:37:15;;;;;;;50.47;29.45;;;5.00;85.20;;;;;;4973929;28;20037;-75
2020/12/13 05:39:53;;;;;;;47.80;28.85;;;5.00;85.30;;;;;;4974271;28;20019;-76
2020/12/13 05:42:38;;;;;;;49.85;30.02;;;5.00;85.10;;;;;;4972747;28;20037;-75
2020/12/13 05:45:30;;;;;;;46.83;27.88;;;4.90;85.20;;;;;;4973977;28;20031;-76
2020/12/13 05:53:01;;;;;;;46.13;28.80;;;4.90;85.80;;;;;;4972405;28;20139;-76
2020/12/13 05:55:27;;;;;;;45.05;26.65;;;4.90;85.80;;;;;;4972719;28;20385;-76
2020/12/13 05:57:54;;;;;;;51.13;28.92;;;5.00;85.80;;;;;;4973722;28;20816;-76
2020/12/13 06:00:20;;;;;;;49.03;28.88;;;5.00;85.50;;;;;;4973656;28;20038;-78
2020/12/13 06:02:49;;;;;;;43.60;27.45;;;5.00;85.60;;;;;;4973716;28;20022;-75
2020/12/13 06:05:16;;;;;;;47.05;28.88;;;5.00;85.60;;;;;;4972480;28;20065;-75
2020/12/13 06:07:50;;;;;;;48.78;28.38;;;4.90;85.40;;;;;;4973916;28;20088;-75
2020/12/13 06:10:24;;;;;;;45.97;29.40;;;4.80;85.60;;;;;;4972277;28;20031;-75
2020/12/13 06:13:06;;;;;;;48.03;28.63;;;4.90;85.70;;;;;;4973607;28;20031;-75
2020/12/13 06:15:33;;;;;;;45.05;27.60;;;4.80;85.80;;;;;;4973887;28;20430;-74
2020/12/13 06:18:00;;;;;;;50.50;27.83;;;4.80;85.80;;;;;;4973575;28;20023;-75
2020/12/13 06:20:27;;;;;;;48.50;28.60;;;4.80;85.90;;;;;;4973527;28;20532;-74
2020/12/13 06:22:54;;;;;;;44.97;28.17;;;4.80;86.10;;;;;;4973516;28;20034;-74
2020/12/13 06:25:21;;;;;;;44.10;27.80;;;4.90;85.90;;;;;;4973751;28;20038;-74
2020/12/13 06:27:52;;;;;;;40.17;25.83;;;4.90;85.70;;;;;;4972441;28;20027;-74
2020/12/13 06:30:19;;;;;;;44.35;27.13;;;4.90;85.50;;;;;;4973599;28;20031;-74
2020/12/13 06:32:50;;;;;;;44.63;27.25;;;4.90;85.50;;;;;;4973326;28;20045;-74
2020/12/13 06:35:16;;;;;;;41.75;25.95;;;4.90;85.70;;;;;;4973406;28;20501;-74
2020/12/13 06:37:42;;;;;;;41.60;26.45;;;4.90;85.80;;;;;;4976655;28;20114;-74
2020/12/13 06:40:13;;;;;;;46.55;28.35;;;4.80;85.70;;;;;;4977621;28;20118;-75
2020/12/13 06:42:42;;;;;;;48.65;27.88;;;4.80;85.90;;;;;;4977419;28;20495;-75
2020/12/13 06:45:13;;;;;;;46.28;28.67;;;4.80;85.90;;;;;;4975918;28;20494;-74
2020/12/13 06:47:41;;;;;;;47.77;28.10;;;4.80;85.80;;;;;;4977231;28;20073;-75
2020/12/13 06:50:19;;;;;;;45.65;28.20;;;4.80;85.90;;;;;;4977269;28;20263;-75
2020/12/13 06:52:44;;;;;;;45.05;27.42;;;4.80;85.90;;;;;;4995305;23;20062;-75
2020/12/13 06:55:11;;;;;;;46.58;28.83;;;4.90;85.60;;;;;;4977047;28;20541;-76
2020/12/13 06:57:37;;;;;;;46.50;27.13;;;4.80;85.20;;;;;;4976882;28;20030;-76
2020/12/13 07:00:07;;;;;;;48.75;27.80;;;4.80;85.40;;;;;;4984874;28;20028;-74
2020/12/13 07:02:56;;;;;;;49.92;27.75;;;4.90;85.20;;;;;;4996434;28;20034;-73
2020/12/13 07:05:22;;;;;;;45.33;28.48;;;4.90;85.30;;;;;;4996483;28;20294;-73
2020/12/13 07:07:53;;;;;;;43.08;27.20;;;4.90;85.30;;;;;;4996339;28;20392;-73
2020/12/13 07:10:19;;;;;;;37.10;22.27;;;4.90;85.30;;;;;;4996370;28;20230;-74
2020/12/13 07:12:52;;;;;;;48.88;29.67;;;4.90;85.20;;;;;;4996095;28;20042;-73
2020/12/13 07:15:27;;;;;;;45.80;27.50;;;4.90;85.40;;;;;;4996395;28;20053;-73
2020/12/13 07:17:55;;;;;;;49.90;28.75;;;4.90;85.30;;;;;;4996134;28;20042;-74
2020/12/13 07:20:21;;;;;;;46.55;29.60;;;4.90;85.40;;;;;;4996027;28;20461;-73
2020/12/13 07:22:46;;;;;;;47.22;27.58;;;5.00;85.20;;;;;;4996030;28;20076;-74
2020/12/13 07:25:12;;;;;;;45.75;28.23;;;5.00;85.30;;;;;;4995829;28;20026;-74
2020/12/13 07:27:40;;;;;;;46.38;28.20;;;5.00;85.00;;;;;;4995934;28;20096;-74
2020/12/13 07:30:11;;;;;;;46.60;27.30;;;5.10;84.80;;;;;;4995936;28;20030;-75
2020/12/13 07:32:38;;;;;;;48.22;27.02;;;5.10;84.70;;;;;;4995865;28;20026;-75
2020/12/13 07:35:03;;;;;;;49.30;28.67;;;5.20;84.60;;;;;;4995829;28;20033;-75
2020/12/13 07:37:29;;;;;;;55.40;27.67;;;5.20;84.30;;;;;;4995648;28;20389;-75
2020/12/13 07:40:11;;;;;;;44.20;26.92;;;5.30;83.80;;;;;;4995673;28;20148;-74
2020/12/13 07:42:37;;;;;;;;;;;5.30;83.60;;;;;;4996312;28;20057;-74
2020/12/13 07:45:03;;;;;;;43.63;26.10;;;5.30;83.90;;;;;;4995967;28;19916;-74
2020/12/13 07:47:29;;;;;;;43.78;27.92;;;5.30;84.00;;;;;;4994934;28;20022;-74
2020/12/13 07:50:02;;;;;;;48.75;27.77;;;5.30;83.70;;;;;;4984894;28;20019;-75
2020/12/13 07:52:28;;;;;;;45.65;28.25;;;5.20;84.40;;;;;;4974676;28;20062;-75
2020/12/13 07:55:03;;;;;;;41.33;26.35;;;5.20;85.00;;;;;;4975848;28;20023;-75
2020/12/13 07:57:29;;;;;;;43.80;26.60;;;5.30;84.60;;;;;;4975976;28;20026;-76
2020/12/13 07:59:54;;;;;;;44.92;26.35;;;5.20;84.90;;;;;;4975802;28;20050;-78
2020/12/13 08:02:22;;;;;;;44.70;26.50;;;5.30;85.10;;;;;;4975908;28;20027;-77
2020/12/13 08:04:49;;;;;;;42.80;26.02;;;5.30;84.70;;;;;;4975771;28;20528;-77
2020/12/13 08:07:16;;;;;;;41.70;25.90;;;5.40;84.70;;;;;;4974402;28;20061;-77
2020/12/13 08:09:42;;;;;;;44.30;28.10;;;;;;;;;;4976047;28;20105;-77
2020/12/13 08:12:12;;;;;;;43.65;26.85;;;5.60;83.80;;;;;;4974250;28;20038;-73
2020/12/13 08:14:38;;;;;;;42.65;25.60;;;5.60;84.00;;;;;;4975479;28;20026;-75
2020/12/13 08:17:04;;;;;;;41.70;24.58;;;5.70;83.70;;;;;;4975477;28;20279;-76
2020/12/13 08:19:43;;;;;;;41.97;24.45;;;5.80;83.50;;;;;;4975508;28;20556;-76
2020/12/13 08:22:13;;;;;;;38.95;23.33;;;5.80;83.20;;;;;;4975645;28;20382;-77
2020/12/13 08:24:39;;;;;;;40.60;24.23;;;5.90;83.30;;;;;;4975450;28;20026;-75
2020/12/13 08:27:06;;;;;;;38.47;24.52;;;6.00;83.30;;;;;;4975318;28;20058;-77
2020/12/13 08:29:32;;;;;;;39.55;24.30;;;6.10;83.00;;;;;;4975181;28;20110;-75
2020/12/13 08:32:00;;;;;;;41.45;25.08;;;6.10;82.40;;;;;;4973869;28;20441;-75
2020/12/13 08:34:29;;;;;;;35.20;23.58;;;6.20;82.40;;;;;;4975327;28;20023;-74
2020/12/13 08:37:00;;;;;;;41.58;24.88;;;6.20;82.50;;;;;;4969907;28;20046;-79
2020/12/13 08:39:29;;;;;;;26.17;18.05;;;6.20;82.30;;;;;;4958490;28;20031;-79
2020/12/13 08:41:56;;;;;;;36.60;24.25;;;6.20;82.30;;;;;;4962530;28;20075;-74
2020/12/13 08:44:27;;;;;;;36.75;22.58;;;6.30;82.10;;;;;;4967485;28;20505;-74
2020/12/13 08:46:54;;;;;;;40.23;24.07;;;6.30;82.20;;;;;;4975008;28;20465;-84
2020/12/13 08:49:40;;;;;;;37.38;24.55;;;6.30;82.20;;;;;;4967005;28;20019;-75
2020/12/13 08:52:16;;;;;;;38.40;25.20;;;6.30;82.00;;;;;;4965534;28;20047;-73
2020/12/13 08:54:49;;;;;;;35.88;22.70;;;6.30;82.30;;;;;;4964181;28;20122;-75
2020/12/13 08:57:31;;;;;;;33.25;21.23;;;6.40;82.20;;;;;;4972746;28;20022;-74
2020/12/13 09:00:11;;;;;;;32.55;20.90;;;6.40;82.10;;;;;;4961972;28;20031;-74
2020/12/13 09:02:37;;;;;;;32.85;22.02;;;6.50;82.10;;;;;;4967392;28;20033;-74
2020/12/13 09:05:07;;;;;;;34.00;20.73;;;6.50;81.60;;;;;;4958130;28;20447;-74
2020/12/13 09:07:33;;;;;;;33.08;21.38;;;6.50;81.60;;;;;;4958717;28;20027;-78
2020/12/13 09:10:08;;;;;;;34.78;22.10;;;6.50;81.70;;;;;;4966499;28;20363;-76
2020/12/13 09:12:36;;;;;;;34.60;21.70;;;6.50;81.90;;;;;;4971123;28;20043;-77
2020/12/13 09:15:24;;;;;;;31.70;22.08;;;6.60;81.80;;;;;;4957976;28;20027;-72
2020/12/13 09:17:58;;;;;;;35.78;21.90;;;6.70;81.70;;;;;;4960831;28;20433;-71
2020/12/13 09:20:29;;;;;;;32.70;21.17;;;6.50;81.80;;;;;;4963004;28;20038;-75
2020/12/13 09:23:05;;;;;;;35.50;23.58;;;6.50;81.90;;;;;;4969395;28;20089;-79
2020/12/13 09:25:42;;;;;;;34.00;22.88;;;6.30;81.90;;;;;;4958294;28;20085;-72
2020/12/13 09:28:08;;;;;;;33.25;23.13;;;6.30;82.20;;;;;;4965403;28;20107;-71
2020/12/13 09:30:34;;;;;;;34.42;23.05;;;6.40;82.30;;;;;;4966569;28;20035;-72
2020/12/13 09:33:01;;;;;;;33.97;19.80;;;6.50;82.10;;;;;;4958070;28;20047;-71
2020/12/13 09:35:31;;;;;;;32.90;22.63;;;6.80;81.70;;;;;;4970271;28;20034;-70
2020/12/13 09:37:57;;;;;;;38.10;22.80;;;6.90;80.80;;;;;;4961452;28;20026;-71
2020/12/13 09:40:22;;;;;;;34.72;21.65;;;7.00;80.50;;;;;;4961746;28;20031;-71
2020/12/13 09:42:49;;;;;;;34.60;22.08;;;6.90;80.50;;;;;;4968003;28;20027;-71
2020/12/13 09:45:14;;;;;;;36.95;23.63;;;6.90;80.60;;;;;;4956386;28;20020;-70
2020/12/13 09:47:40;;;;;;;33.78;22.42;;;7.00;80.60;;;;;;4968600;28;20027;-71
2020/12/13 09:50:06;;;;;;;38.33;23.67;;;6.90;80.30;;;;;;4962686;28;20022;-69
2020/12/13 09:52:32;;;;;;;42.63;24.35;;;6.70;80.40;;;;;;4961537;28;20051;-72
2020/12/13 09:54:58;;;;;;;38.30;25.20;;;6.50;80.80;;;;;;4964890;28;20029;-73
2020/12/13 09:57:24;;;;;;;42.95;24.50;;;6.50;81.30;;;;;;4969614;28;20335;-81
2020/12/13 09:59:50;;;;;;;42.80;24.90;;;6.40;81.40;;;;;;4960348;28;20377;-80
2020/12/13 10:02:15;;;;;;;37.47;24.80;;;6.40;81.40;;;;;;4963331;28;20038;-80
2020/12/13 10:04:41;;;;;;;37.13;23.70;;;6.40;81.50;;;;;;4971490;28;20062;-80
2020/12/13 10:09:38;;;;;;;;;;;6.60;81.20;;;;;;4968844;28;20020;-78
2020/12/13 10:12:04;;;;;;;32.17;21.23;;;6.80;80.50;;;;;;4959215;28;20358;-82
2020/12/13 10:14:29;;;;;;;33.55;21.25;;;6.90;80.20;;;;;;4960260;28;20027;-77
2020/12/13 10:16:56;;;;;;;36.58;23.30;;;7.00;79.90;;;;;;4967174;28;20027;-77
2020/12/13 10:19:21;;;;;;;34.60;22.30;;;7.00;79.70;;;;;;4970711;28;20492;-76
2020/12/13 10:21:48;;;;;;;35.63;22.50;;;7.20;79.40;;;;;;4958616;28;20027;-76
2020/12/13 10:24:14;;;;;;;38.97;22.48;;;7.30;78.80;;;;;;4967295;28;20019;-76
2020/12/13 10:26:41;;;;;;;31.92;20.70;;;7.30;78.70;;;;;;4973109;28;20035;-76
2020/12/13 10:29:07;;;;;;;36.33;22.75;;;7.30;78.90;;;;;;4965685;28;20482;-77
2020/12/13 10:31:38;;;;;;;31.75;21.58;;;7.40;78.40;;;;;;4968956;28;20027;-77
2020/12/13 10:34:06;;;;;;;30.63;21.00;;;7.40;78.90;;;;;;4959243;28;20031;-76
2020/12/13 10:36:34;;;;;;;34.75;22.65;;;7.20;78.60;;;;;;4972802;28;20298;-76
2020/12/13 10:38:59;;;;;;;35.88;23.00;;;7.20;79.10;;;;;;4972931;28;20030;-76
2020/12/13 10:41:25;;;;;;;34.45;22.05;;;7.10;79.10;;;;;;4972283;28;20035;-76
2020/12/13 10:43:51;;;;;;;40.13;22.83;;;7.00;79.60;;;;;;4966674;28;20478;-76
2020/12/13 10:46:17;;;;;;;32.47;21.42;;;7.10;79.80;;;;;;4963620;28;20030;-77
2020/12/13 10:48:43;;;;;;;29.60;19.90;;;7.20;79.40;;;;;;4958668;28;20078;-76
2020/12/13 10:51:09;;;;;;;32.85;22.63;;;7.20;79.20;;;;;;4968408;28;20362;-72
2020/12/13 10:53:35;;;;;;;29.88;20.23;;;7.30;79.10;;;;;;4965608;28;20054;-73
2020/12/13 10:56:03;;;;;;;33.28;21.52;;;7.40;79.10;;;;;;4961147;28;20031;-76
2020/12/13 10:58:29;;;;;;;31.92;21.52;;;7.50;79.00;;;;;;4971387;28;20037;-75
2020/12/13 11:00:56;;;;;;;36.55;20.95;;;7.50;78.70;;;;;;4971380;28;20019;-77
2020/12/13 11:03:22;;;;;;;33.28;21.60;;;7.60;78.20;;;;;;4955436;28;20028;-75
2020/12/13 11:05:48;;;;;;;36.83;23.52;;;7.60;78.40;;;;;;4966706;28;20061;-73
2020/12/13 11:08:14;;;;;;;36.65;24.40;;;7.60;78.10;;;;;;4962565;28;20035;-76
2020/12/13 11:10:48;;;;;;;36.55;24.35;;;7.40;77.90;;;;;;4972411;28;20031;-74
2020/12/13 11:13:14;;;;;;;36.03;23.13;;;7.10;78.80;;;;;;4955148;28;20075;-76
2020/12/13 11:15:42;;;;;;;41.80;26.90;;;7.10;79.40;;;;;;4967765;28;20111;-78
2020/12/13 11:18:07;;;;;;;39.88;23.98;;;7.20;79.10;;;;;;4965674;28;20026;-76
2020/12/13 11:20:33;;;;;;;36.13;23.77;;;7.30;78.60;;;;;;4972486;28;20458;-77
2020/12/13 11:22:59;;;;;;;35.45;23.13;;;7.20;78.80;;;;;;4969679;28;20027;-76
2020/12/13 11:25:24;;;;;;;50.50;30.48;;;7.30;78.80;;;;;;4972713;28;20023;-78
2020/12/13 11:27:50;;;;;;;39.35;25.77;;;7.30;78.90;;;;;;4963087;28;20034;-78
2020/12/13 11:30:15;;;;;;;53.03;32.85;;;7.40;78.40;;;;;;4966156;28;20023;-77
2020/12/13 11:32:44;;;;;;;699.55;534.47;;;7.50;78.70;;;;;;4969733;28;20035;-77
2020/12/13 11:35:10;;;;;;;68.43;39.13;;;7.60;79.10;;;;;;4958540;28;20482;-76
2020/12/13 11:37:36;;;;;;;43.95;28.17;;;7.60;78.80;;;;;;4972183;28;20055;-75
2020/12/13 11:40:03;;;;;;;96.43;50.45;;;7.70;78.30;;;;;;4972682;28;20485;-77
2020/12/13 11:42:29;;;;;;;42.65;26.40;;;7.80;79.40;;;;;;4975085;28;20039;-76
2020/12/13 11:44:55;;;;;;;33.45;23.08;;;7.70;78.30;;;;;;4973105;28;20030;-76
2020/12/13 11:47:20;;;;;;;33.35;22.70;;;7.70;78.30;;;;;;4972000;28;20062;-76
2020/12/13 11:49:46;;;;;;;38.17;23.42;;;7.60;78.20;;;;;;4961939;28;20031;-74
2020/12/13 11:52:12;;;;;;;40.08;24.65;;;7.40;78.20;;;;;;4966099;28;20493;-75
2020/12/13 11:54:37;;;;;;;40.72;24.20;;;7.10;79.20;;;;;;4954755;28;20039;-75
2020/12/13 11:57:04;;;;;;;38.05;23.95;;;7.00;79.90;;;;;;4973145;28;20109;-75
2020/12/13 11:59:29;;;;;;;38.08;23.63;;;7.00;80.30;;;;;;4959718;28;20073;-76
2020/12/13 12:01:56;;;;;;;39.45;24.25;;;7.10;79.50;;;;;;4968555;28;20466;-75
2020/12/13 12:04:25;;;;;;;38.40;23.42;;;7.10;79.40;;;;;;4968872;28;20117;-78
2020/12/13 12:06:50;;;;;;;40.55;24.17;;;7.10;79.30;;;;;;4969723;28;20027;-78
2020/12/13 12:09:17;;;;;;;35.03;22.92;;;7.00;79.60;;;;;;4962844;28;20094;-77
2020/12/13 12:11:43;;;;;;;36.55;22.73;;;7.00;79.80;;;;;;4970077;28;20034;-78
2020/12/13 12:14:12;;;;;;;41.05;24.20;;;7.00;79.70;;;;;;4964575;28;20023;-76
2020/12/13 12:16:40;;;;;;;35.58;22.25;;;6.90;80.00;;;;;;4962610;28;20054;-76
2020/12/13 12:19:05;;;;;;;37.38;24.25;;;6.90;80.10;;;;;;4970306;28;20118;-76
2020/12/13 12:21:33;;;;;;;36.40;22.98;;;6.90;80.00;;;;;;4961694;28;20115;-76
2020/12/13 12:23:59;;;;;;;36.20;23.30;;;7.00;80.00;;;;;;4967875;28;20085;-76
2020/12/13 12:26:34;;;;;;;35.33;23.70;;;7.00;80.30;;;;;;4966473;28;20026;-76
2020/12/13 12:29:02;;;;;;;41.40;24.42;;;7.00;80.30;;;;;;4959180;28;20498;-76
2020/12/13 12:31:28;;;;;;;37.72;24.08;;;6.90;80.10;;;;;;4971193;28;20039;-76
2020/12/13 12:33:55;;;;;;;36.97;22.90;;;6.90;80.10;;;;;;4961777;28;20026;-76
2020/12/13 12:36:23;;;;;;;40.75;25.65;;;7.00;80.30;;;;;;4964407;28;20541;-75
2020/12/13 12:38:50;;;;;;;40.65;23.85;;;7.00;80.00;;;;;;4969636;28;20062;-76
2020/12/13 12:41:18;;;;;;;40.00;24.65;;;7.00;80.10;;;;;;4957158;28;20050;-75
2020/12/13 12:43:45;;;;;;;41.15;25.45;;;6.90;80.20;;;;;;4969458;28;20027;-75
2020/12/13 12:46:11;;;;;;;36.13;23.52;;;6.90;80.40;;;;;;4964121;28;20030;-77
2020/12/13 12:48:38;;;;;;;39.92;25.17;;;7.00;80.30;;;;;;4961972;28;20490;-76
2020/12/13 12:51:07;;;;;;;39.95;23.42;;;7.00;80.30;;;;;;4966394;28;20030;-76